Manchester, MA (01944)

11:08 AM EDT on September 04, 2015 (GMT -0400)
MBS | | Change Station
CLOSE
Current Station
Personal Weather Station
Location: Manchester, MA
Elevation: 105 ft
Nearby Weather Stations

Elev 105 ft 42.57 °N, 70.75 °W | Updated 12 minutes ago

Overcast
Overcast
67.3 °F
Feels Like 67.3 °F
N
10.0
Wind Variable Wind from NNE
Gusts 18.0 mph

Today
High -- | Low -- °F
--% Chance of Precip.
Yesterday
High -- | Low -- °F
Precip. -- in
6:10 AM 7:12 PM
Waning Gibbous, 59% visible
Pressure 30.16 in
Visibility 10.0 miles
Clouds Few 4500 ft
Dew Point 56 °F
Humidity 67%
Rainfall 0.00 in
Snow Depth Not available.
UV 7 out of 12
Pollen 8.50 out of 12
Air Quality Not available.
Flu Activity Not available.
METAR KBVY 041453Z 05013G18KT 10SM FEW045 20/13 A3018 RMK AO2 SLP213 T02000128 51020
Pressure 30.16 in
Visibility 10.0 miles
Clouds Few 4500 ft
Dew Point 56 °F
Humidity 67%
Rainfall 0.00 in
Snow Depth Not available.
UV 7 out of 12
Pollen 8.50 out of 12
Air Quality Not available.
Flu Activity Not available.
METAR KBVY 041453Z 05013G18KT 10SM FEW045 20/13 A3018 RMK AO2 SLP213 T02000128 51020

10-Day Weather Forecast

×

Almanac

Astronomy

Sep. 04, 2015 Rise Set
Actual Time
Civil Twilight
Nautical Twilight
Astronomical Twilight
Moon
Length of Visible Light
Length of Day
Tomorrow will be .
, % of the Moon is Illuminated

Today's Extremes

State Highs State Lows

Community

WunderPhotos

Upload Photos

1,852,187 photos uploaded!

WunderBlogs® & News

Nearby

Air Quality

  Air Quality AQ Index Pollutant
Not available.

Snow Depth

Station Depth Elevation

Earthquake Activity

City Distance Mag. Time & Date
Minimum magnitude displayed is 2.5.

Coastal Water Temperatures

Place Temperature

Stations

Nearby Weather Stations

Station Location Temp. Windchill Dew Point Humidity Wind Precip. Elev Updated Type